createdAt,value
2022-08-12T00:03:57.902Z,31
2022-08-12T00:08:59.662Z,33
2022-08-12T00:14:01.246Z,31
2022-08-12T00:19:02.881Z,30
2022-08-12T00:24:04.518Z,35
2022-08-12T00:29:06.116Z,34
2022-08-12T00:34:07.713Z,31
2022-08-12T00:39:09.368Z,35
2022-08-12T00:44:10.998Z,33
2022-08-12T00:49:12.905Z,28
2022-08-12T00:54:14.525Z,34
2022-08-12T00:59:16.185Z,31
2022-08-12T01:04:17.854Z,33
2022-08-12T01:09:19.465Z,31
2022-08-12T01:14:21.086Z,34
2022-08-12T01:19:23.377Z,30
2022-08-12T01:24:30.877Z,32
2022-08-12T01:29:33.606Z,31
2022-08-12T01:34:36.303Z,32
2022-08-12T01:39:38.928Z,28
2022-08-12T01:45:40.666Z,33
2022-08-12T01:50:45.386Z,38
2022-08-12T01:55:47.799Z,43
2022-08-12T02:00:55.214Z,38
2022-08-12T02:05:57.817Z,33
2022-08-12T02:10:59.473Z,31
2022-08-12T02:16:01.141Z,27
2022-08-12T02:21:02.830Z,29
2022-08-12T02:26:04.413Z,30
2022-08-12T02:31:06.017Z,25
2022-08-12T02:36:07.635Z,31
2022-08-12T02:41:09.318Z,30
2022-08-12T02:46:14.471Z,29
2022-08-12T02:51:16.740Z,31
2022-08-12T02:56:18.342Z,31
2022-08-12T03:01:20.072Z,25
2022-08-12T03:06:21.728Z,28
2022-08-12T03:11:23.401Z,29
2022-08-12T03:16:25.026Z,25
2022-08-12T03:21:56.468Z,29
2022-08-12T03:27:11.228Z,28
2022-08-12T03:32:35.485Z,29
2022-08-12T03:37:38.056Z,28
2022-08-12T03:42:39.854Z,35
2022-08-12T03:47:41.666Z,24
2022-08-12T03:52:43.305Z,23
2022-08-12T03:57:46.064Z,21
2022-08-12T04:02:50.468Z,24
2022-08-12T04:07:58.467Z,27
2022-08-12T04:13:00.299Z,24
2022-08-12T04:18:07.044Z,23
2022-08-12T04:23:09.533Z,24
2022-08-12T04:28:13.402Z,25
2022-08-12T04:33:15.584Z,21
2022-08-12T04:38:17.215Z,19
2022-08-12T04:44:01.504Z,22
2022-08-12T04:49:04.662Z,23
2022-08-12T04:54:06.713Z,23
2022-08-12T04:59:08.322Z,25
2022-08-12T05:04:09.887Z,22
2022-08-12T05:09:13.587Z,26
2022-08-12T05:14:16.056Z,22
2022-08-12T05:19:18.695Z,24
2022-08-12T05:24:24.259Z,23
2022-08-12T05:30:06.825Z,25
2022-08-12T05:35:10.682Z,22
2022-08-12T05:40:12.248Z,25
2022-08-12T05:45:13.884Z,25
2022-08-12T05:50:15.638Z,26
2022-08-12T05:55:17.319Z,21
2022-08-12T06:00:18.971Z,25
2022-08-12T06:05:20.871Z,27
2022-08-12T06:10:31.749Z,26
2022-08-12T06:15:34.692Z,28
2022-08-12T06:20:36.323Z,23
2022-08-12T06:25:38.414Z,23
2022-08-12T06:30:40.245Z,21
2022-08-12T06:35:49.316Z,23
2022-08-12T06:40:51.662Z,20
2022-08-12T06:45:53.299Z,22
2022-08-12T06:50:54.920Z,20
2022-08-12T06:55:57.909Z,22
2022-08-12T07:01:00.408Z,21
2022-08-12T07:06:02.136Z,27
2022-08-12T07:11:03.754Z,21
2022-08-12T07:16:05.365Z,18
2022-08-12T07:21:06.970Z,17
2022-08-12T07:26:08.542Z,17
2022-08-12T07:31:10.184Z,14
2022-08-12T07:36:11.992Z,14
2022-08-12T07:41:15.632Z,14
2022-08-12T07:46:17.738Z,15
2022-08-12T07:51:25.602Z,15
2022-08-12T07:56:27.556Z,14
2022-08-12T08:01:29.206Z,13
2022-08-12T08:06:30.872Z,13
2022-08-12T08:11:32.446Z,11
2022-08-12T08:16:34.171Z,16
2022-08-12T08:21:35.779Z,16
2022-08-12T08:26:37.617Z,28
2022-08-12T08:31:40.613Z,24
2022-08-12T08:36:44.715Z,21
2022-08-12T08:42:16.798Z,22
2022-08-12T08:47:21.764Z,25
2022-08-12T08:52:39.335Z,26
2022-08-12T08:57:44.557Z,25
2022-08-12T09:02:49.424Z,23
2022-08-12T09:08:12.177Z,22
2022-08-12T09:34:29.456Z,29
2022-08-12T09:40:05.289Z,22
2022-08-12T09:45:17.830Z,21
2022-08-12T09:50:20.909Z,22
2022-08-12T09:56:06.504Z,26
2022-08-12T10:02:45.194Z,20
2022-08-12T10:07:51.789Z,27
2022-08-12T10:13:06.804Z,22
2022-08-12T10:18:14.752Z,24
2022-08-12T10:23:16.917Z,20
2022-08-12T10:28:24.945Z,16
2022-08-12T10:33:31.019Z,16
2022-08-12T10:38:41.391Z,17
2022-08-12T10:43:54.960Z,16
2022-08-12T10:49:06.768Z,12
2022-08-12T10:55:06.812Z,14
2022-08-12T11:00:35.146Z,13
2022-08-12T11:07:03.453Z,13
2022-08-12T11:13:45.903Z,16
2022-08-12T11:18:48.631Z,15
2022-08-12T11:23:57.436Z,20
2022-08-12T11:29:05.464Z,21
2022-08-12T11:34:51.968Z,18
2022-08-12T11:45:10.449Z,20
2022-08-12T11:50:19.236Z,18
2022-08-12T11:55:23.180Z,17
2022-08-12T12:05:56.670Z,16
2022-08-12T12:11:02.375Z,15
2022-08-12T12:16:11.106Z,17
2022-08-12T12:21:12.728Z,17
2022-08-12T12:26:35.244Z,13
2022-08-12T12:32:11.831Z,16
2022-08-12T12:37:16.462Z,17
2022-08-12T12:43:05.079Z,16
2022-08-12T12:48:07.972Z,14
2022-08-12T12:53:09.753Z,17
2022-08-12T12:59:07.404Z,17
2022-08-12T13:04:57.389Z,14
2022-08-12T13:10:02.067Z,15
2022-08-12T13:15:04.168Z,14
2022-08-12T13:20:05.802Z,13
2022-08-12T13:25:09.631Z,17
2022-08-12T13:30:13.271Z,13
2022-08-12T13:35:19.804Z,23
2022-08-12T13:40:34.712Z,17
2022-08-12T13:45:36.871Z,16
2022-08-12T13:50:38.619Z,13
2022-08-12T13:55:41.168Z,12
2022-08-12T14:00:45.703Z,14
2022-08-12T14:05:47.676Z,13
2022-08-12T14:10:52.152Z,15
2022-08-12T14:15:53.753Z,13
2022-08-12T14:20:55.570Z,11
2022-08-12T14:25:57.263Z,14
2022-08-12T14:31:01.041Z,14
2022-08-12T14:36:03.258Z,13
2022-08-12T14:41:05.076Z,8
2022-08-12T14:46:09.276Z,10
2022-08-12T14:52:43.247Z,10
2022-08-12T14:58:59.997Z,11
2022-08-12T15:04:22.541Z,11
2022-08-12T15:09:29.179Z,14
2022-08-12T15:14:31.113Z,12
2022-08-12T15:20:31.790Z,13
2022-08-12T15:25:40.166Z,9
2022-08-12T15:30:49.121Z,13
2022-08-12T15:35:53.966Z,8
2022-08-12T15:40:55.941Z,9
2022-08-12T15:46:00.899Z,12
2022-08-12T15:51:02.839Z,10
2022-08-12T15:56:04.741Z,9
2022-08-12T16:01:06.861Z,14
2022-08-12T16:06:19.016Z,10
2022-08-12T16:11:32.722Z,11
2022-08-12T16:16:48.525Z,10
2022-08-12T16:21:58.290Z,10
2022-08-12T16:27:00.704Z,14
2022-08-12T16:32:02.415Z,13
2022-08-12T16:37:04.056Z,10
2022-08-12T16:42:09.043Z,21
2022-08-12T16:47:11.299Z,11
2022-08-12T16:52:16.602Z,10
2022-08-12T16:57:34.659Z,12
2022-08-12T17:02:37.849Z,11
2022-08-12T17:07:43.132Z,9
2022-08-12T17:12:45.004Z,11
2022-08-12T17:17:46.939Z,20
2022-08-12T17:22:49.417Z,8
2022-08-12T17:27:57.509Z,10
2022-08-12T17:33:00.627Z,10
2022-08-12T17:38:04.056Z,10
2022-08-12T17:43:52.141Z,10
2022-08-12T17:49:00.482Z,21
2022-08-12T17:54:12.446Z,32
2022-08-12T17:59:14.472Z,60
2022-08-12T18:05:04.823Z,13
2022-08-12T18:10:11.543Z,10
2022-08-12T18:15:26.751Z,10
2022-08-12T18:21:06.290Z,12
2022-08-12T18:26:15.053Z,8
2022-08-12T18:31:18.815Z,9
2022-08-12T18:36:22.389Z,9
2022-08-12T18:41:24.750Z,9
2022-08-12T18:46:29.858Z,10
2022-08-12T18:51:34.239Z,9
2022-08-12T18:56:47.689Z,9
2022-08-12T19:02:20.892Z,6
2022-08-12T19:07:23.935Z,10
2022-08-12T19:12:30.291Z,9
2022-08-12T19:17:56.168Z,8
2022-08-12T19:23:02.103Z,15
2022-08-12T19:28:08.715Z,10
2022-08-12T19:33:10.309Z,9
2022-08-12T19:38:12.279Z,10
2022-08-12T19:43:20.713Z,9
2022-08-12T19:48:22.589Z,9
2022-08-12T19:53:24.485Z,9
2022-08-12T19:58:27.010Z,10
2022-08-12T20:03:39.492Z,8
2022-08-12T20:08:47.745Z,8
2022-08-12T20:14:00.634Z,12
2022-08-12T20:19:03.366Z,10
2022-08-12T20:24:10.664Z,11
2022-08-12T20:29:12.349Z,10
2022-08-12T20:34:13.985Z,11
2022-08-12T20:39:52.145Z,11
2022-08-12T20:44:55.689Z,9
2022-08-12T20:50:00.130Z,11
2022-08-12T20:55:01.869Z,8
2022-08-12T21:00:03.474Z,9
2022-08-12T21:05:16.324Z,9
2022-08-12T21:10:21.438Z,9
2022-08-12T21:15:30.761Z,9
2022-08-12T21:20:56.930Z,8
2022-08-12T21:26:01.417Z,10
2022-08-12T21:32:35.440Z,12
2022-08-12T21:37:40.194Z,9
2022-08-12T21:42:42.261Z,10
2022-08-12T21:47:43.995Z,9
2022-08-12T21:52:49.187Z,8
2022-08-12T21:57:54.660Z,11
2022-08-12T22:03:04.225Z,10
2022-08-12T22:08:05.927Z,8
2022-08-12T22:14:02.354Z,11
2022-08-12T22:19:09.853Z,10
2022-08-12T22:24:25.757Z,9
2022-08-12T22:29:28.855Z,10
2022-08-12T22:34:33.168Z,9
2022-08-12T22:39:35.212Z,11
2022-08-12T22:44:52.904Z,10
2022-08-12T22:49:59.889Z,6
2022-08-12T22:55:05.362Z,13
2022-08-12T23:00:23.623Z,10
2022-08-12T23:05:57.799Z,13
2022-08-12T23:11:12.121Z,9
2022-08-12T23:16:28.202Z,12
2022-08-12T23:22:03.413Z,10
2022-08-12T23:27:08.462Z,11
2022-08-12T23:32:10.301Z,11
2022-08-12T23:37:11.909Z,10
2022-08-12T23:42:16.897Z,12
2022-08-12T23:47:19.944Z,12
2022-08-12T23:52:21.560Z,11
2022-08-12T23:57:24.757Z,10
